sensor_id;sensor_type;location;lat;lon;timestamp;P1;durP1;ratioP1;P2;durP2;ratioP2
61569;SDS011;47462;59.172;17.196;2023-01-08T00:01:22;9.33;;;4.63;;
61569;SDS011;47462;59.172;17.196;2023-01-08T00:03:48;12.10;;;5.32;;
61569;SDS011;47462;59.172;17.196;2023-01-08T00:06:15;10.07;;;5.43;;
61569;SDS011;47462;59.172;17.196;2023-01-08T00:08:43;12.90;;;5.40;;
61569;SDS011;47462;59.172;17.196;2023-01-08T00:11:09;12.63;;;5.25;;
61569;SDS011;47462;59.172;17.196;2023-01-08T00:16:01;16.40;;;5.65;;
61569;SDS011;47462;59.172;17.196;2023-01-08T00:18:28;11.38;;;5.70;;
61569;SDS011;47462;59.172;17.196;2023-01-08T00:20:55;11.70;;;4.85;;
61569;SDS011;47462;59.172;17.196;2023-01-08T00:23:20;9.57;;;4.70;;
61569;SDS011;47462;59.172;17.196;2023-01-08T00:25:47;8.45;;;4.03;;
61569;SDS011;47462;59.172;17.196;2023-01-08T00:28:12;8.50;;;4.13;;
61569;SDS011;47462;59.172;17.196;2023-01-08T00:30:39;7.18;;;4.20;;
61569;SDS011;47462;59.172;17.196;2023-01-08T00:33:04;14.13;;;5.53;;
61569;SDS011;47462;59.172;17.196;2023-01-08T00:35:29;7.43;;;3.97;;
61569;SDS011;47462;59.172;17.196;2023-01-08T00:37:55;10.32;;;3.90;;
61569;SDS011;47462;59.172;17.196;2023-01-08T00:40:20;7.93;;;3.97;;
61569;SDS011;47462;59.172;17.196;2023-01-08T00:42:46;9.37;;;4.50;;
61569;SDS011;47462;59.172;17.196;2023-01-08T00:45:11;9.80;;;4.07;;
61569;SDS011;47462;59.172;17.196;2023-01-08T00:47:37;7.90;;;4.23;;
61569;SDS011;47462;59.172;17.196;2023-01-08T00:50:02;7.33;;;3.47;;
61569;SDS011;47462;59.172;17.196;2023-01-08T00:52:28;7.32;;;3.42;;
61569;SDS011;47462;59.172;17.196;2023-01-08T00:54:53;8.60;;;3.70;;
61569;SDS011;47462;59.172;17.196;2023-01-08T00:57:19;9.67;;;4.23;;
61569;SDS011;47462;59.172;17.196;2023-01-08T00:59:45;9.18;;;3.70;;
61569;SDS011;47462;59.172;17.196;2023-01-08T01:02:10;7.77;;;3.70;;
61569;SDS011;47462;59.172;17.196;2023-01-08T01:04:36;11.88;;;4.65;;
61569;SDS011;47462;59.172;17.196;2023-01-08T01:07:01;8.57;;;3.43;;
61569;SDS011;47462;59.172;17.196;2023-01-08T01:09:27;7.50;;;3.58;;
61569;SDS011;47462;59.172;17.196;2023-01-08T01:11:52;6.00;;;2.97;;
61569;SDS011;47462;59.172;17.196;2023-01-08T01:14:18;7.67;;;3.67;;
61569;SDS011;47462;59.172;17.196;2023-01-08T01:16:43;5.33;;;2.93;;
61569;SDS011;47462;59.172;17.196;2023-01-08T01:19:09;6.00;;;2.90;;
61569;SDS011;47462;59.172;17.196;2023-01-08T01:21:34;5.10;;;2.95;;
61569;SDS011;47462;59.172;17.196;2023-01-08T01:24:01;4.93;;;2.80;;
61569;SDS011;47462;59.172;17.196;2023-01-08T01:26:28;6.65;;;3.10;;
61569;SDS011;47462;59.172;17.196;2023-01-08T01:28:54;4.85;;;2.47;;
61569;SDS011;47462;59.172;17.196;2023-01-08T01:31:21;5.90;;;2.67;;
61569;SDS011;47462;59.172;17.196;2023-01-08T01:33:48;4.43;;;2.65;;
61569;SDS011;47462;59.172;17.196;2023-01-08T01:36:15;6.45;;;2.13;;
61569;SDS011;47462;59.172;17.196;2023-01-08T01:38:42;4.18;;;2.55;;
61569;SDS011;47462;59.172;17.196;2023-01-08T01:41:12;2.53;;;1.98;;
61569;SDS011;47462;59.172;17.196;2023-01-08T01:43:45;4.30;;;2.15;;
61569;SDS011;47462;59.172;17.196;2023-01-08T01:49:05;6.25;;;1.95;;
61569;SDS011;47462;59.172;17.196;2023-01-08T01:51:46;4.05;;;2.30;;
61569;SDS011;47462;59.172;17.196;2023-01-08T01:54:16;2.42;;;1.85;;
61569;SDS011;47462;59.172;17.196;2023-01-08T01:56:42;3.67;;;2.40;;
61569;SDS011;47462;59.172;17.196;2023-01-08T01:59:08;4.38;;;2.42;;
61569;SDS011;47462;59.172;17.196;2023-01-08T02:03:59;2.67;;;2.10;;
61569;SDS011;47462;59.172;17.196;2023-01-08T02:06:28;6.23;;;2.30;;
61569;SDS011;47462;59.172;17.196;2023-01-08T02:09:12;6.25;;;2.13;;
61569;SDS011;47462;59.172;17.196;2023-01-08T02:15:05;8.60;;;2.45;;
61569;SDS011;47462;59.172;17.196;2023-01-08T02:28:54;6.78;;;2.63;;
61569;SDS011;47462;59.172;17.196;2023-01-08T02:31:24;5.07;;;2.63;;
61569;SDS011;47462;59.172;17.196;2023-01-08T02:33:52;4.45;;;2.55;;
61569;SDS011;47462;59.172;17.196;2023-01-08T02:39:35;11.32;;;2.55;;
61569;SDS011;47462;59.172;17.196;2023-01-08T02:47:38;7.15;;;2.65;;
61569;SDS011;47462;59.172;17.196;2023-01-08T02:50:14;5.63;;;2.90;;
61569;SDS011;47462;59.172;17.196;2023-01-08T02:53:29;7.07;;;2.85;;
61569;SDS011;47462;59.172;17.196;2023-01-08T02:55:34;5.53;;;2.75;;
61569;SDS011;47462;59.172;17.196;2023-01-08T02:58:03;4.70;;;2.75;;
61569;SDS011;47462;59.172;17.196;2023-01-08T03:00:30;7.22;;;3.05;;
61569;SDS011;47462;59.172;17.196;2023-01-08T03:03:08;7.03;;;2.78;;
61569;SDS011;47462;59.172;17.196;2023-01-08T03:05:36;4.07;;;2.47;;
61569;SDS011;47462;59.172;17.196;2023-01-08T03:08:05;7.35;;;2.80;;
61569;SDS011;47462;59.172;17.196;2023-01-08T03:10:32;4.60;;;2.92;;
61569;SDS011;47462;59.172;17.196;2023-01-08T03:13:03;5.75;;;3.22;;
61569;SDS011;47462;59.172;17.196;2023-01-08T03:15:36;5.53;;;3.45;;
61569;SDS011;47462;59.172;17.196;2023-01-08T03:18:10;5.07;;;3.35;;
61569;SDS011;47462;59.172;17.196;2023-01-08T03:20:39;8.25;;;3.10;;
61569;SDS011;47462;59.172;17.196;2023-01-08T03:23:06;8.70;;;3.70;;
61569;SDS011;47462;59.172;17.196;2023-01-08T03:25:36;8.43;;;3.47;;
61569;SDS011;47462;59.172;17.196;2023-01-08T03:28:04;7.28;;;3.42;;
61569;SDS011;47462;59.172;17.196;2023-01-08T03:30:37;6.15;;;3.35;;
61569;SDS011;47462;59.172;17.196;2023-01-08T03:33:05;8.85;;;3.72;;
61569;SDS011;47462;59.172;17.196;2023-01-08T03:35:34;7.97;;;3.10;;
61569;SDS011;47462;59.172;17.196;2023-01-08T03:38:15;6.97;;;3.97;;
61569;SDS011;47462;59.172;17.196;2023-01-08T03:40:46;7.03;;;3.80;;
61569;SDS011;47462;59.172;17.196;2023-01-08T03:43:15;9.75;;;3.45;;
61569;SDS011;47462;59.172;17.196;2023-01-08T03:45:44;7.68;;;3.83;;
61569;SDS011;47462;59.172;17.196;2023-01-08T03:48:14;7.22;;;4.03;;
61569;SDS011;47462;59.172;17.196;2023-01-08T03:50:40;8.80;;;3.50;;
61569;SDS011;47462;59.172;17.196;2023-01-08T03:53:06;8.43;;;3.72;;
61569;SDS011;47462;59.172;17.196;2023-01-08T03:55:32;6.30;;;3.15;;
61569;SDS011;47462;59.172;17.196;2023-01-08T03:57:58;12.67;;;3.37;;
61569;SDS011;47462;59.172;17.196;2023-01-08T04:00:23;9.93;;;3.90;;
61569;SDS011;47462;59.172;17.196;2023-01-08T04:02:49;5.77;;;3.53;;
61569;SDS011;47462;59.172;17.196;2023-01-08T04:05:14;5.60;;;3.13;;
61569;SDS011;47462;59.172;17.196;2023-01-08T04:07:39;7.00;;;3.73;;
61569;SDS011;47462;59.172;17.196;2023-01-08T04:10:05;6.50;;;3.63;;
61569;SDS011;47462;59.172;17.196;2023-01-08T04:12:31;39.53;;;4.22;;
61569;SDS011;47462;59.172;17.196;2023-01-08T04:14:56;7.90;;;3.03;;
61569;SDS011;47462;59.172;17.196;2023-01-08T04:17:21;5.97;;;3.13;;
61569;SDS011;47462;59.172;17.196;2023-01-08T04:19:47;11.03;;;3.57;;
61569;SDS011;47462;59.172;17.196;2023-01-08T04:22:12;5.43;;;2.70;;
61569;SDS011;47462;59.172;17.196;2023-01-08T04:24:37;6.43;;;2.57;;
61569;SDS011;47462;59.172;17.196;2023-01-08T04:27:03;3.07;;;2.27;;
61569;SDS011;47462;59.172;17.196;2023-01-08T04:29:29;6.30;;;2.30;;
61569;SDS011;47462;59.172;17.196;2023-01-08T04:31:54;7.63;;;2.50;;
61569;SDS011;47462;59.172;17.196;2023-01-08T04:34:19;4.67;;;2.30;;
61569;SDS011;47462;59.172;17.196;2023-01-08T04:36:45;3.67;;;2.13;;
61569;SDS011;47462;59.172;17.196;2023-01-08T04:39:10;2.90;;;1.90;;
61569;SDS011;47462;59.172;17.196;2023-01-08T04:41:36;4.88;;;2.25;;
61569;SDS011;47462;59.172;17.196;2023-01-08T04:44:01;3.50;;;2.27;;
61569;SDS011;47462;59.172;17.196;2023-01-08T04:46:27;3.85;;;2.17;;
61569;SDS011;47462;59.172;17.196;2023-01-08T04:48:52;4.38;;;1.80;;
61569;SDS011;47462;59.172;17.196;2023-01-08T04:51:18;3.07;;;1.77;;
61569;SDS011;47462;59.172;17.196;2023-01-08T04:53:43;7.70;;;2.23;;
61569;SDS011;47462;59.172;17.196;2023-01-08T04:56:10;3.47;;;2.15;;
61569;SDS011;47462;59.172;17.196;2023-01-08T04:58:36;6.30;;;2.50;;
61569;SDS011;47462;59.172;17.196;2023-01-08T05:01:13;3.60;;;2.22;;
61569;SDS011;47462;59.172;17.196;2023-01-08T05:03:42;5.93;;;2.50;;
61569;SDS011;47462;59.172;17.196;2023-01-08T05:06:08;10.25;;;2.35;;
61569;SDS011;47462;59.172;17.196;2023-01-08T05:08:33;4.37;;;2.10;;
61569;SDS011;47462;59.172;17.196;2023-01-08T05:10:59;4.07;;;2.22;;
61569;SDS011;47462;59.172;17.196;2023-01-08T05:13:25;5.78;;;3.55;;
61569;SDS011;47462;59.172;17.196;2023-01-08T05:15:50;4.80;;;2.00;;
61569;SDS011;47462;59.172;17.196;2023-01-08T05:18:15;6.00;;;2.13;;
61569;SDS011;47462;59.172;17.196;2023-01-08T05:20:41;3.65;;;2.53;;
61569;SDS011;47462;59.172;17.196;2023-01-08T05:23:07;4.77;;;2.70;;
61569;SDS011;47462;59.172;17.196;2023-01-08T05:25:33;4.80;;;2.53;;
61569;SDS011;47462;59.172;17.196;2023-01-08T05:27:59;4.50;;;2.60;;
61569;SDS011;47462;59.172;17.196;2023-01-08T05:30:24;4.03;;;2.33;;
61569;SDS011;47462;59.172;17.196;2023-01-08T05:32:50;8.27;;;2.97;;
61569;SDS011;47462;59.172;17.196;2023-01-08T05:35:15;5.03;;;2.87;;
61569;SDS011;47462;59.172;17.196;2023-01-08T05:37:41;6.80;;;2.77;;
61569;SDS011;47462;59.172;17.196;2023-01-08T05:40:06;6.15;;;3.45;;
61569;SDS011;47462;59.172;17.196;2023-01-08T05:42:33;5.75;;;3.05;;
61569;SDS011;47462;59.172;17.196;2023-01-08T05:44:59;5.72;;;2.83;;
61569;SDS011;47462;59.172;17.196;2023-01-08T05:47:28;21.75;;;3.47;;
61569;SDS011;47462;59.172;17.196;2023-01-08T05:49:54;26.75;;;3.95;;
61569;SDS011;47462;59.172;17.196;2023-01-08T05:52:20;128.05;;;8.23;;
61569;SDS011;47462;59.172;17.196;2023-01-08T05:54:45;24.20;;;3.73;;
61569;SDS011;47462;59.172;17.196;2023-01-08T05:57:10;48.67;;;4.80;;
61569;SDS011;47462;59.172;17.196;2023-01-08T05:59:36;19.35;;;3.83;;
61569;SDS011;47462;59.172;17.196;2023-01-08T06:02:01;8.93;;;3.30;;
61569;SDS011;47462;59.172;17.196;2023-01-08T06:04:27;23.07;;;4.13;;
61569;SDS011;47462;59.172;17.196;2023-01-08T06:06:52;6.67;;;4.57;;
61569;SDS011;47462;59.172;17.196;2023-01-08T06:09:17;52.50;;;5.43;;
61569;SDS011;47462;59.172;17.196;2023-01-08T06:11:43;284.95;;;15.93;;
61569;SDS011;47462;59.172;17.196;2023-01-08T06:14:09;94.18;;;8.45;;
61569;SDS011;47462;59.172;17.196;2023-01-08T06:16:34;137.23;;;9.73;;
61569;SDS011;47462;59.172;17.196;2023-01-08T06:19:00;57.20;;;6.70;;
61569;SDS011;47462;59.172;17.196;2023-01-08T06:21:25;300.93;;;16.47;;
61569;SDS011;47462;59.172;17.196;2023-01-08T06:23:50;413.35;;;21.70;;
61569;SDS011;47462;59.172;17.196;2023-01-08T06:26:16;324.60;;;17.27;;
61569;SDS011;47462;59.172;17.196;2023-01-08T06:28:41;435.67;;;22.33;;
61569;SDS011;47462;59.172;17.196;2023-01-08T06:31:06;540.30;;;24.63;;
61569;SDS011;47462;59.172;17.196;2023-01-08T06:33:32;612.07;;;30.20;;
61569;SDS011;47462;59.172;17.196;2023-01-08T06:35:58;260.10;;;15.20;;
61569;SDS011;47462;59.172;17.196;2023-01-08T06:38:26;261.23;;;15.07;;
61569;SDS011;47462;59.172;17.196;2023-01-08T06:40:51;594.10;;;29.07;;
61569;SDS011;47462;59.172;17.196;2023-01-08T06:43:16;508.30;;;25.00;;
61569;SDS011;47462;59.172;17.196;2023-01-08T06:45:51;518.10;;;26.42;;
61569;SDS011;47462;59.172;17.196;2023-01-08T06:48:17;283.73;;;14.88;;
61569;SDS011;47462;59.172;17.196;2023-01-08T06:50:42;285.23;;;16.27;;
61569;SDS011;47462;59.172;17.196;2023-01-08T06:53:08;330.87;;;17.80;;
61569;SDS011;47462;59.172;17.196;2023-01-08T06:55:33;653.43;;;30.03;;
61569;SDS011;47462;59.172;17.196;2023-01-08T06:57:58;455.67;;;22.27;;
61569;SDS011;47462;59.172;17.196;2023-01-08T07:00:24;844.47;;;39.27;;
61569;SDS011;47462;59.172;17.196;2023-01-08T07:02:51;684.70;;;33.63;;
61569;SDS011;47462;59.172;17.196;2023-01-08T07:05:17;524.60;;;24.48;;
61569;SDS011;47462;59.172;17.196;2023-01-08T07:07:43;608.40;;;30.73;;
61569;SDS011;47462;59.172;17.196;2023-01-08T07:10:09;751.25;;;36.90;;
61569;SDS011;47462;59.172;17.196;2023-01-08T07:12:34;420.85;;;21.38;;
61569;SDS011;47462;59.172;17.196;2023-01-08T07:15:00;415.55;;;20.60;;
61569;SDS011;47462;59.172;17.196;2023-01-08T07:17:26;273.98;;;15.40;;
61569;SDS011;47462;59.172;17.196;2023-01-08T07:19:51;412.57;;;22.50;;
61569;SDS011;47462;59.172;17.196;2023-01-08T07:22:17;644.83;;;31.60;;
61569;SDS011;47462;59.172;17.196;2023-01-08T07:24:42;557.88;;;28.15;;
61569;SDS011;47462;59.172;17.196;2023-01-08T07:27:08;455.20;;;22.13;;
61569;SDS011;47462;59.172;17.196;2023-01-08T07:29:33;346.65;;;17.67;;
61569;SDS011;47462;59.172;17.196;2023-01-08T07:31:59;594.93;;;28.87;;
61569;SDS011;47462;59.172;17.196;2023-01-08T07:34:24;670.20;;;30.93;;
61569;SDS011;47462;59.172;17.196;2023-01-08T07:36:50;484.67;;;23.30;;
61569;SDS011;47462;59.172;17.196;2023-01-08T07:39:15;135.97;;;11.47;;
61569;SDS011;47462;59.172;17.196;2023-01-08T07:41:40;387.30;;;19.80;;
61569;SDS011;47462;59.172;17.196;2023-01-08T07:44:06;474.45;;;22.50;;
61569;SDS011;47462;59.172;17.196;2023-01-08T07:46:31;846.93;;;43.20;;
61569;SDS011;47462;59.172;17.196;2023-01-08T07:48:56;339.37;;;19.63;;
61569;SDS011;47462;59.172;17.196;2023-01-08T07:51:23;390.73;;;21.58;;
61569;SDS011;47462;59.172;17.196;2023-01-08T07:53:48;194.43;;;15.40;;
61569;SDS011;47462;59.172;17.196;2023-01-08T07:56:15;208.90;;;16.25;;
61569;SDS011;47462;59.172;17.196;2023-01-08T07:58:41;196.35;;;17.15;;
61569;SDS011;47462;59.172;17.196;2023-01-08T08:01:09;49.43;;;10.00;;
61569;SDS011;47462;59.172;17.196;2023-01-08T08:03:36;174.07;;;14.18;;
61569;SDS011;47462;59.172;17.196;2023-01-08T08:06:02;168.25;;;14.27;;
61569;SDS011;47462;59.172;17.196;2023-01-08T08:08:27;160.80;;;13.70;;
61569;SDS011;47462;59.172;17.196;2023-01-08T08:10:53;207.53;;;16.57;;
61569;SDS011;47462;59.172;17.196;2023-01-08T08:13:18;105.50;;;12.52;;
61569;SDS011;47462;59.172;17.196;2023-01-08T08:15:44;185.10;;;17.77;;
61569;SDS011;47462;59.172;17.196;2023-01-08T08:18:10;64.77;;;12.43;;
61569;SDS011;47462;59.172;17.196;2023-01-08T08:20:35;173.07;;;16.92;;
61569;SDS011;47462;59.172;17.196;2023-01-08T08:23:06;634.90;;;36.85;;
61569;SDS011;47462;59.172;17.196;2023-01-08T08:25:33;179.10;;;18.08;;
61569;SDS011;47462;59.172;17.196;2023-01-08T08:28:00;299.27;;;20.48;;
61569;SDS011;47462;59.172;17.196;2023-01-08T08:30:28;401.65;;;25.80;;
61569;SDS011;47462;59.172;17.196;2023-01-08T08:32:56;515.47;;;32.78;;
61569;SDS011;47462;59.172;17.196;2023-01-08T08:35:24;140.75;;;16.30;;
61569;SDS011;47462;59.172;17.196;2023-01-08T08:37:49;203.70;;;19.40;;
61569;SDS011;47462;59.172;17.196;2023-01-08T08:40:14;76.27;;;12.47;;
61569;SDS011;47462;59.172;17.196;2023-01-08T08:42:40;547.17;;;33.78;;
61569;SDS011;47462;59.172;17.196;2023-01-08T08:45:05;249.47;;;22.20;;
61569;SDS011;47462;59.172;17.196;2023-01-08T08:47:31;287.25;;;22.05;;
61569;SDS011;47462;59.172;17.196;2023-01-08T08:49:57;609.37;;;34.43;;
61569;SDS011;47462;59.172;17.196;2023-01-08T08:52:22;676.03;;;36.87;;
61569;SDS011;47462;59.172;17.196;2023-01-08T08:54:48;477.47;;;30.23;;
61569;SDS011;47462;59.172;17.196;2023-01-08T08:57:13;525.20;;;30.73;;
61569;SDS011;47462;59.172;17.196;2023-01-08T08:59:38;221.57;;;18.00;;
61569;SDS011;47462;59.172;17.196;2023-01-08T09:02:04;460.48;;;27.70;;
61569;SDS011;47462;59.172;17.196;2023-01-08T09:04:33;256.10;;;19.70;;
61569;SDS011;47462;59.172;17.196;2023-01-08T09:06:59;851.20;;;45.58;;
61569;SDS011;47462;59.172;17.196;2023-01-08T09:09:24;588.80;;;32.83;;
61569;SDS011;47462;59.172;17.196;2023-01-08T09:11:51;348.42;;;25.48;;
61569;SDS011;47462;59.172;17.196;2023-01-08T09:14:16;228.13;;;21.35;;
61569;SDS011;47462;59.172;17.196;2023-01-08T09:16:41;271.43;;;24.10;;
61569;SDS011;47462;59.172;17.196;2023-01-08T09:19:07;181.98;;;20.98;;
61569;SDS011;47462;59.172;17.196;2023-01-08T09:24:00;259.55;;;24.65;;
61569;SDS011;47462;59.172;17.196;2023-01-08T09:26:25;194.00;;;21.67;;
61569;SDS011;47462;59.172;17.196;2023-01-08T09:28:52;445.25;;;30.88;;
61569;SDS011;47462;59.172;17.196;2023-01-08T09:31:18;422.83;;;32.92;;
61569;SDS011;47462;59.172;17.196;2023-01-08T09:33:45;151.23;;;19.90;;
61569;SDS011;47462;59.172;17.196;2023-01-08T09:36:12;300.15;;;26.17;;
61569;SDS011;47462;59.172;17.196;2023-01-08T09:38:37;694.43;;;42.27;;
61569;SDS011;47462;59.172;17.196;2023-01-08T09:41:04;198.67;;;23.83;;
61569;SDS011;47462;59.172;17.196;2023-01-08T09:43:35;93.72;;;20.52;;
61569;SDS011;47462;59.172;17.196;2023-01-08T09:46:07;79.32;;;20.98;;
61569;SDS011;47462;59.172;17.196;2023-01-08T09:48:37;166.10;;;23.27;;
61569;SDS011;47462;59.172;17.196;2023-01-08T09:51:08;127.03;;;22.98;;
61569;SDS011;47462;59.172;17.196;2023-01-08T09:53:37;86.45;;;20.52;;
61569;SDS011;47462;59.172;17.196;2023-01-08T09:56:03;179.63;;;24.60;;
61569;SDS011;47462;59.172;17.196;2023-01-08T10:01:25;83.07;;;21.50;;
61569;SDS011;47462;59.172;17.196;2023-01-08T10:06:27;300.58;;;30.48;;
61569;SDS011;47462;59.172;17.196;2023-01-08T10:08:54;405.23;;;34.42;;
61569;SDS011;47462;59.172;17.196;2023-01-08T10:11:20;241.82;;;27.73;;
61569;SDS011;47462;59.172;17.196;2023-01-08T10:13:53;119.82;;;24.75;;
61569;SDS011;47462;59.172;17.196;2023-01-08T10:16:38;318.10;;;30.75;;
61569;SDS011;47462;59.172;17.196;2023-01-08T10:19:07;163.90;;;24.70;;
61569;SDS011;47462;59.172;17.196;2023-01-08T10:21:37;534.70;;;38.10;;
61569;SDS011;47462;59.172;17.196;2023-01-08T10:24:04;209.32;;;27.15;;
61569;SDS011;47462;59.172;17.196;2023-01-08T10:34:17;520.17;;;39.15;;
61569;SDS011;47462;59.172;17.196;2023-01-08T10:36:49;169.00;;;26.02;;
61569;SDS011;47462;59.172;17.196;2023-01-08T10:39:20;104.10;;;27.27;;
61569;SDS011;47462;59.172;17.196;2023-01-08T10:41:49;333.23;;;35.53;;
61569;SDS011;47462;59.172;17.196;2023-01-08T10:44:18;345.63;;;34.22;;
61569;SDS011;47462;59.172;17.196;2023-01-08T10:46:45;179.63;;;30.60;;
61569;SDS011;47462;59.172;17.196;2023-01-08T10:49:15;145.98;;;29.17;;
61569;SDS011;47462;59.172;17.196;2023-01-08T10:51:47;138.07;;;30.17;;
61569;SDS011;47462;59.172;17.196;2023-01-08T10:56:55;281.73;;;35.40;;
61569;SDS011;47462;59.172;17.196;2023-01-08T10:59:21;229.00;;;34.25;;
61569;SDS011;47462;59.172;17.196;2023-01-08T11:01:48;172.32;;;31.55;;
61569;SDS011;47462;59.172;17.196;2023-01-08T11:04:19;639.38;;;47.15;;
61569;SDS011;47462;59.172;17.196;2023-01-08T11:06:46;341.27;;;36.00;;
61569;SDS011;47462;59.172;17.196;2023-01-08T11:09:15;456.75;;;41.17;;
61569;SDS011;47462;59.172;17.196;2023-01-08T11:11:46;182.85;;;32.65;;
61569;SDS011;47462;59.172;17.196;2023-01-08T11:14:19;195.00;;;32.42;;
61569;SDS011;47462;59.172;17.196;2023-01-08T11:16:55;208.15;;;33.58;;
61569;SDS011;47462;59.172;17.196;2023-01-08T11:19:23;156.85;;;32.75;;
61569;SDS011;47462;59.172;17.196;2023-01-08T11:21:56;216.82;;;32.40;;
61569;SDS011;47462;59.172;17.196;2023-01-08T11:24:31;212.02;;;31.80;;
61569;SDS011;47462;59.172;17.196;2023-01-08T11:35:45;216.27;;;31.73;;
61569;SDS011;47462;59.172;17.196;2023-01-08T11:38:14;257.25;;;32.60;;
61569;SDS011;47462;59.172;17.196;2023-01-08T11:51:59;682.60;;;46.38;;
61569;SDS011;47462;59.172;17.196;2023-01-08T12:00:02;308.25;;;33.72;;
61569;SDS011;47462;59.172;17.196;2023-01-08T12:02:47;303.83;;;32.47;;
61569;SDS011;47462;59.172;17.196;2023-01-08T12:05:27;525.13;;;41.17;;
61569;SDS011;47462;59.172;17.196;2023-01-08T12:08:06;325.48;;;35.92;;
61569;SDS011;47462;59.172;17.196;2023-01-08T12:13:37;563.97;;;44.95;;
61569;SDS011;47462;59.172;17.196;2023-01-08T12:16:16;369.58;;;38.03;;
61569;SDS011;47462;59.172;17.196;2023-01-08T12:21:51;546.65;;;44.00;;
61569;SDS011;47462;59.172;17.196;2023-01-08T12:27:13;550.65;;;43.67;;
61569;SDS011;47462;59.172;17.196;2023-01-08T12:33:08;300.80;;;39.00;;
61569;SDS011;47462;59.172;17.196;2023-01-08T12:35:43;263.05;;;38.17;;
61569;SDS011;47462;59.172;17.196;2023-01-08T12:38:18;521.00;;;46.80;;
61569;SDS011;47462;59.172;17.196;2023-01-08T12:40:51;291.83;;;38.78;;
61569;SDS011;47462;59.172;17.196;2023-01-08T12:43:31;922.90;;;57.92;;
61569;SDS011;47462;59.172;17.196;2023-01-08T12:46:05;357.17;;;41.38;;
61569;SDS011;47462;59.172;17.196;2023-01-08T12:48:36;445.83;;;41.53;;
61569;SDS011;47462;59.172;17.196;2023-01-08T12:51:06;594.47;;;48.58;;
61569;SDS011;47462;59.172;17.196;2023-01-08T13:07:09;207.73;;;35.90;;
61569;SDS011;47462;59.172;17.196;2023-01-08T13:09:52;383.77;;;42.42;;
61569;SDS011;47462;59.172;17.196;2023-01-08T13:12:31;337.77;;;40.20;;
61569;SDS011;47462;59.172;17.196;2023-01-08T13:15:02;326.27;;;41.95;;
61569;SDS011;47462;59.172;17.196;2023-01-08T13:17:28;506.33;;;46.65;;
61569;SDS011;47462;59.172;17.196;2023-01-08T13:19:54;522.92;;;47.58;;
61569;SDS011;47462;59.172;17.196;2023-01-08T13:22:31;451.42;;;46.00;;
61569;SDS011;47462;59.172;17.196;2023-01-08T13:27:35;694.22;;;54.22;;
61569;SDS011;47462;59.172;17.196;2023-01-08T13:30:01;334.80;;;41.28;;
61569;SDS011;47462;59.172;17.196;2023-01-08T13:35:02;369.25;;;43.38;;
61569;SDS011;47462;59.172;17.196;2023-01-08T13:37:41;316.23;;;38.85;;
61569;SDS011;47462;59.172;17.196;2023-01-08T13:43:21;286.65;;;40.35;;
61569;SDS011;47462;59.172;17.196;2023-01-08T13:48:26;384.38;;;42.92;;
61569;SDS011;47462;59.172;17.196;2023-01-08T13:50:54;417.45;;;44.63;;
61569;SDS011;47462;59.172;17.196;2023-01-08T13:53:20;127.65;;;35.83;;
61569;SDS011;47462;59.172;17.196;2023-01-08T13:58:27;664.85;;;50.83;;
61569;SDS011;47462;59.172;17.196;2023-01-08T14:00:57;520.83;;;46.22;;
61569;SDS011;47462;59.172;17.196;2023-01-08T14:03:34;318.73;;;42.30;;
61569;SDS011;47462;59.172;17.196;2023-01-08T14:06:05;246.93;;;37.90;;
61569;SDS011;47462;59.172;17.196;2023-01-08T14:08:31;262.38;;;39.60;;
61569;SDS011;47462;59.172;17.196;2023-01-08T14:10:57;637.78;;;52.13;;
61569;SDS011;47462;59.172;17.196;2023-01-08T14:13:27;287.50;;;37.35;;
61569;SDS011;47462;59.172;17.196;2023-01-08T14:15:57;467.88;;;46.45;;
61569;SDS011;47462;59.172;17.196;2023-01-08T14:18:26;323.48;;;39.65;;
61569;SDS011;47462;59.172;17.196;2023-01-08T14:20:52;544.42;;;50.15;;
61569;SDS011;47462;59.172;17.196;2023-01-08T14:23:20;368.07;;;42.33;;
61569;SDS011;47462;59.172;17.196;2023-01-08T14:25:50;153.75;;;37.05;;
61569;SDS011;47462;59.172;17.196;2023-01-08T14:28:17;205.05;;;37.45;;
61569;SDS011;47462;59.172;17.196;2023-01-08T14:30:54;237.68;;;38.75;;
61569;SDS011;47462;59.172;17.196;2023-01-08T14:33:22;411.03;;;43.57;;
61569;SDS011;47462;59.172;17.196;2023-01-08T14:35:54;170.95;;;37.88;;
61569;SDS011;47462;59.172;17.196;2023-01-08T14:38:20;256.40;;;38.78;;
61569;SDS011;47462;59.172;17.196;2023-01-08T14:40:47;481.73;;;44.50;;
61569;SDS011;47462;59.172;17.196;2023-01-08T14:43:21;321.15;;;39.63;;
61569;SDS011;47462;59.172;17.196;2023-01-08T14:45:48;247.10;;;37.70;;
61569;SDS011;47462;59.172;17.196;2023-01-08T14:51:05;392.88;;;43.00;;
61569;SDS011;47462;59.172;17.196;2023-01-08T14:53:46;492.15;;;45.10;;
61569;SDS011;47462;59.172;17.196;2023-01-08T14:56:19;245.43;;;37.83;;
61569;SDS011;47462;59.172;17.196;2023-01-08T14:58:48;177.48;;;34.47;;
61569;SDS011;47462;59.172;17.196;2023-01-08T15:03:48;216.30;;;36.42;;
61569;SDS011;47462;59.172;17.196;2023-01-08T15:06:25;198.55;;;34.33;;
61569;SDS011;47462;59.172;17.196;2023-01-08T15:08:54;204.43;;;34.40;;
61569;SDS011;47462;59.172;17.196;2023-01-08T15:11:21;191.40;;;34.40;;
61569;SDS011;47462;59.172;17.196;2023-01-08T15:13:49;137.18;;;32.45;;
61569;SDS011;47462;59.172;17.196;2023-01-08T15:19:33;137.85;;;31.60;;
61569;SDS011;47462;59.172;17.196;2023-01-08T15:21:56;124.50;;;30.38;;
61569;SDS011;47462;59.172;17.196;2023-01-08T15:24:24;87.32;;;28.15;;
61569;SDS011;47462;59.172;17.196;2023-01-08T15:27:03;122.43;;;30.25;;
61569;SDS011;47462;59.172;17.196;2023-01-08T15:29:39;107.97;;;29.77;;
61569;SDS011;47462;59.172;17.196;2023-01-08T15:34:38;79.10;;;25.67;;
61569;SDS011;47462;59.172;17.196;2023-01-08T15:37:04;94.45;;;27.35;;
61569;SDS011;47462;59.172;17.196;2023-01-08T15:39:30;134.83;;;27.67;;
61569;SDS011;47462;59.172;17.196;2023-01-08T15:41:55;151.80;;;27.87;;
61569;SDS011;47462;59.172;17.196;2023-01-08T15:44:43;72.53;;;24.27;;
61569;SDS011;47462;59.172;17.196;2023-01-08T15:47:09;66.22;;;23.33;;
61569;SDS011;47462;59.172;17.196;2023-01-08T15:49:34;88.93;;;25.13;;
61569;SDS011;47462;59.172;17.196;2023-01-08T15:51:59;71.00;;;23.10;;
61569;SDS011;47462;59.172;17.196;2023-01-08T15:54:25;67.93;;;23.30;;
61569;SDS011;47462;59.172;17.196;2023-01-08T15:56:50;64.75;;;20.65;;
61569;SDS011;47462;59.172;17.196;2023-01-08T15:59:16;61.40;;;21.27;;
61569;SDS011;47462;59.172;17.196;2023-01-08T16:01:41;68.20;;;20.73;;
61569;SDS011;47462;59.172;17.196;2023-01-08T16:04:07;57.90;;;21.23;;
61569;SDS011;47462;59.172;17.196;2023-01-08T16:06:33;105.37;;;22.30;;
61569;SDS011;47462;59.172;17.196;2023-01-08T16:09:00;61.38;;;22.13;;
61569;SDS011;47462;59.172;17.196;2023-01-08T16:11:26;55.45;;;22.13;;
61569;SDS011;47462;59.172;17.196;2023-01-08T16:13:53;47.30;;;19.73;;
61569;SDS011;47462;59.172;17.196;2023-01-08T16:16:18;49.35;;;19.77;;
61569;SDS011;47462;59.172;17.196;2023-01-08T16:18:45;50.78;;;18.67;;
61569;SDS011;47462;59.172;17.196;2023-01-08T16:21:11;56.22;;;21.10;;